Ridge, New York
Current Conditions -  °F | °C
As of 4:56 AM on Friday 28 Nov 2014 (Local Time) from KHWV Reporting Station
Clear Clear  
Wind Chill: 25°   Ceiling: Unl
Heat Index: 30°   Visibility: 10mi
Dew Point: 24°   Wind: 5mph
Humidity: 79%   Direction: 310°NW
Pressure: 30.06"   Gusts: NA
Location:  40.89°N, 72.89°W
Report Text: KHWV 280956Z AUTO 31004KT 10SM CLR M01/M04 A3006 RMK AO2 SLP179 T10111044 TSNO $
Loading
Personal Weather Stations






























Interactive Weather Map New forecast layout! Learn more

10-Day Weather Forecast

Advertisements
Track Severe Weather on mobile